sensor_id;sensor_type;location;lat;lon;timestamp;pressure;altitude;pressure_sealevel;temperature;humidity
17438;BME280;73152;52.198;5.422;2024-01-11T00:00:09;103160.91;;;27.87;24.48
17438;BME280;73152;52.198;5.422;2024-01-11T00:02:38;103161.97;;;28.15;24.55
17438;BME280;73152;52.198;5.422;2024-01-11T00:05:08;103164.19;;;28.26;23.99
17438;BME280;73152;52.198;5.422;2024-01-11T00:07:40;103160.88;;;28.45;23.75
17438;BME280;73152;52.198;5.422;2024-01-11T00:10:09;103160.31;;;28.64;23.66
17438;BME280;73152;52.198;5.422;2024-01-11T00:12:38;103160.25;;;28.79;23.69
17438;BME280;73152;52.198;5.422;2024-01-11T00:15:08;103164.53;;;28.88;23.55
17438;BME280;73152;52.198;5.422;2024-01-11T00:17:37;103155.28;;;29.04;23.55
17438;BME280;73152;52.198;5.422;2024-01-11T00:20:08;103152.78;;;29.09;23.33
17438;BME280;73152;52.198;5.422;2024-01-11T00:22:40;103162.09;;;29.14;23.00
17438;BME280;73152;52.198;5.422;2024-01-11T00:25:09;103160.50;;;29.20;23.14
17438;BME280;73152;52.198;5.422;2024-01-11T00:27:38;103156.53;;;29.22;23.06
17438;BME280;73152;52.198;5.422;2024-01-11T00:30:08;103150.44;;;29.20;23.05
17438;BME280;73152;52.198;5.422;2024-01-11T00:32:37;103157.13;;;29.18;23.08
17438;BME280;73152;52.198;5.422;2024-01-11T00:35:06;103152.41;;;29.12;23.29
17438;BME280;73152;52.198;5.422;2024-01-11T00:37:35;103147.09;;;29.04;23.11
17438;BME280;73152;52.198;5.422;2024-01-11T00:40:08;103143.81;;;28.94;23.21
17438;BME280;73152;52.198;5.422;2024-01-11T00:42:37;103137.19;;;28.81;23.36
17438;BME280;73152;52.198;5.422;2024-01-11T00:45:07;103126.31;;;28.67;23.40
17438;BME280;73152;52.198;5.422;2024-01-11T00:47:36;103148.44;;;28.57;23.91
17438;BME280;73152;52.198;5.422;2024-01-11T00:50:07;103145.94;;;28.41;23.82
17438;BME280;73152;52.198;5.422;2024-01-11T00:52:36;103153.56;;;28.31;24.09
17438;BME280;73152;52.198;5.422;2024-01-11T00:55:08;103151.72;;;28.17;24.09
17438;BME280;73152;52.198;5.422;2024-01-11T00:57:37;103153.88;;;28.07;24.04
17438;BME280;73152;52.198;5.422;2024-01-11T01:00:09;103144.25;;;27.96;24.59
17438;BME280;73152;52.198;5.422;2024-01-11T01:02:40;103153.75;;;27.86;24.57
17438;BME280;73152;52.198;5.422;2024-01-11T01:05:09;103145.66;;;27.78;24.61
17438;BME280;73152;52.198;5.422;2024-01-11T01:07:38;103147.81;;;27.68;24.51
17438;BME280;73152;52.198;5.422;2024-01-11T01:10:09;103149.41;;;27.62;24.74
17438;BME280;73152;52.198;5.422;2024-01-11T01:12:38;103156.44;;;27.57;24.75
17438;BME280;73152;52.198;5.422;2024-01-11T01:15:08;103161.59;;;27.51;24.65
17438;BME280;73152;52.198;5.422;2024-01-11T01:17:37;103159.63;;;27.45;25.15
17438;BME280;73152;52.198;5.422;2024-01-11T01:20:08;103169.88;;;27.43;24.99
17438;BME280;73152;52.198;5.422;2024-01-11T01:22:37;103168.16;;;27.42;24.75
17438;BME280;73152;52.198;5.422;2024-01-11T01:25:09;103171.72;;;27.43;25.02
17438;BME280;73152;52.198;5.422;2024-01-11T01:27:38;103165.06;;;27.45;25.07
17438;BME280;73152;52.198;5.422;2024-01-11T01:30:08;103169.97;;;27.50;24.77
17438;BME280;73152;52.198;5.422;2024-01-11T01:32:37;103163.97;;;27.54;24.61
17438;BME280;73152;52.198;5.422;2024-01-11T01:35:07;103159.47;;;27.62;24.91
17438;BME280;73152;52.198;5.422;2024-01-11T01:37:36;103161.06;;;27.71;24.45
17438;BME280;73152;52.198;5.422;2024-01-11T01:40:10;103174.59;;;27.79;24.56
17438;BME280;73152;52.198;5.422;2024-01-11T01:42:43;103176.03;;;27.89;24.52
17438;BME280;73152;52.198;5.422;2024-01-11T01:45:12;103175.09;;;27.97;24.50
17438;BME280;73152;52.198;5.422;2024-01-11T01:47:42;103180.13;;;28.08;24.23
17438;BME280;73152;52.198;5.422;2024-01-11T01:50:13;103179.75;;;28.11;24.08
17438;BME280;73152;52.198;5.422;2024-01-11T01:52:43;103182.00;;;28.22;24.13
17438;BME280;73152;52.198;5.422;2024-01-11T01:55:15;103174.09;;;28.27;24.06
17438;BME280;73152;52.198;5.422;2024-01-11T01:57:46;103176.31;;;28.38;23.71
17438;BME280;73152;52.198;5.422;2024-01-11T02:00:16;103183.09;;;28.42;23.60
17438;BME280;73152;52.198;5.422;2024-01-11T02:02:50;103210.44;;;28.49;23.68
17438;BME280;73152;52.198;5.422;2024-01-11T02:05:20;103212.44;;;28.55;23.72
17438;BME280;73152;52.198;5.422;2024-01-11T02:07:49;103209.16;;;28.59;23.75
17438;BME280;73152;52.198;5.422;2024-01-11T02:10:23;103214.91;;;28.64;23.30
17438;BME280;73152;52.198;5.422;2024-01-11T02:12:53;103205.28;;;28.68;23.43
17438;BME280;73152;52.198;5.422;2024-01-11T02:15:22;103197.75;;;28.70;23.41
17438;BME280;73152;52.198;5.422;2024-01-11T02:17:51;103200.53;;;28.77;23.33
17438;BME280;73152;52.198;5.422;2024-01-11T02:20:20;103193.66;;;28.81;23.38
17438;BME280;73152;52.198;5.422;2024-01-11T02:23:00;103182.84;;;28.87;23.43
17438;BME280;73152;52.198;5.422;2024-01-11T02:25:32;103185.56;;;28.87;23.42
17438;BME280;73152;52.198;5.422;2024-01-11T02:28:01;103182.44;;;28.90;23.25
17438;BME280;73152;52.198;5.422;2024-01-11T02:30:30;103183.28;;;28.91;23.24
17438;BME280;73152;52.198;5.422;2024-01-11T02:32:59;103175.47;;;28.88;23.11
17438;BME280;73152;52.198;5.422;2024-01-11T02:35:31;103181.97;;;28.87;23.22
17438;BME280;73152;52.198;5.422;2024-01-11T02:38:00;103179.84;;;28.82;23.33
17438;BME280;73152;52.198;5.422;2024-01-11T02:40:33;103184.81;;;28.79;23.50
17438;BME280;73152;52.198;5.422;2024-01-11T02:43:08;103182.66;;;28.74;23.24
17438;BME280;73152;52.198;5.422;2024-01-11T02:45:37;103158.88;;;28.54;23.43
17438;BME280;73152;52.198;5.422;2024-01-11T02:48:06;103173.50;;;28.61;23.48
17438;BME280;73152;52.198;5.422;2024-01-11T02:50:35;103178.19;;;28.52;23.78
17438;BME280;73152;52.198;5.422;2024-01-11T02:53:04;103184.38;;;28.46;23.62
17438;BME280;73152;52.198;5.422;2024-01-11T02:55:36;103187.44;;;28.37;23.69
17438;BME280;73152;52.198;5.422;2024-01-11T02:58:05;103177.06;;;28.32;23.95
17438;BME280;73152;52.198;5.422;2024-01-11T03:00:34;103186.88;;;28.27;23.85
17438;BME280;73152;52.198;5.422;2024-01-11T03:03:04;103184.06;;;28.20;24.13
17438;BME280;73152;52.198;5.422;2024-01-11T03:05:33;103183.78;;;28.15;23.89
17438;BME280;73152;52.198;5.422;2024-01-11T03:08:02;103189.81;;;28.10;24.04
17438;BME280;73152;52.198;5.422;2024-01-11T03:10:31;103190.53;;;28.04;23.98
17438;BME280;73152;52.198;5.422;2024-01-11T03:13:03;103197.88;;;28.04;24.18
17438;BME280;73152;52.198;5.422;2024-01-11T03:15:32;103191.09;;;28.00;23.89
17438;BME280;73152;52.198;5.422;2024-01-11T03:18:01;103182.44;;;27.96;24.19
17438;BME280;73152;52.198;5.422;2024-01-11T03:20:30;103186.19;;;27.95;24.21
17438;BME280;73152;52.198;5.422;2024-01-11T03:22:59;103185.53;;;27.93;24.48
17438;BME280;73152;52.198;5.422;2024-01-11T03:25:29;103189.47;;;27.91;24.11
17438;BME280;73152;52.198;5.422;2024-01-11T03:27:58;103189.66;;;27.89;24.39
17438;BME280;73152;52.198;5.422;2024-01-11T03:30:30;103197.63;;;27.91;24.16
17438;BME280;73152;52.198;5.422;2024-01-11T03:32:59;103180.72;;;27.81;24.55
17438;BME280;73152;52.198;5.422;2024-01-11T03:35:28;103191.16;;;27.92;24.09
17438;BME280;73152;52.198;5.422;2024-01-11T03:37:57;103192.47;;;27.96;24.17
17438;BME280;73152;52.198;5.422;2024-01-11T03:40:26;103190.41;;;27.98;23.98
17438;BME280;73152;52.198;5.422;2024-01-11T03:42:55;103193.47;;;28.03;23.92
17438;BME280;73152;52.198;5.422;2024-01-11T03:45:24;103197.31;;;28.08;23.93
17438;BME280;73152;52.198;5.422;2024-01-11T03:47:58;103190.66;;;28.11;24.02
17438;BME280;73152;52.198;5.422;2024-01-11T03:50:27;103182.19;;;28.06;23.96
17438;BME280;73152;52.198;5.422;2024-01-11T03:52:56;103199.94;;;28.16;24.02
17438;BME280;73152;52.198;5.422;2024-01-11T03:55:25;103202.97;;;28.21;24.09
17438;BME280;73152;52.198;5.422;2024-01-11T03:57:54;103208.22;;;28.23;23.97
17438;BME280;73152;52.198;5.422;2024-01-11T04:00:23;103203.25;;;28.27;23.84
17438;BME280;73152;52.198;5.422;2024-01-11T04:02:52;103196.94;;;28.26;24.07
17438;BME280;73152;52.198;5.422;2024-01-11T04:05:23;103201.56;;;28.11;23.96
17438;BME280;73152;52.198;5.422;2024-01-11T04:07:52;103208.66;;;27.83;24.35
17438;BME280;73152;52.198;5.422;2024-01-11T04:10:21;103208.97;;;27.50;24.59
17438;BME280;73152;52.198;5.422;2024-01-11T04:12:50;103216.13;;;27.21;25.08
17438;BME280;73152;52.198;5.422;2024-01-11T04:15:19;103215.09;;;26.99;25.31
17438;BME280;73152;52.198;5.422;2024-01-11T04:17:48;103225.09;;;26.76;25.60
17438;BME280;73152;52.198;5.422;2024-01-11T04:20:17;103223.78;;;26.64;26.06
17438;BME280;73152;52.198;5.422;2024-01-11T04:22:49;103224.09;;;26.69;25.80
17438;BME280;73152;52.198;5.422;2024-01-11T04:25:18;103234.94;;;27.08;25.63
17438;BME280;73152;52.198;5.422;2024-01-11T04:27:47;103232.53;;;27.81;24.55
17438;BME280;73152;52.198;5.422;2024-01-11T04:30:16;103228.28;;;28.59;23.79
17438;BME280;73152;52.198;5.422;2024-01-11T04:32:45;103238.66;;;29.21;22.98
17438;BME280;73152;52.198;5.422;2024-01-11T04:35:14;103235.91;;;29.63;22.70
17438;BME280;73152;52.198;5.422;2024-01-11T04:37:43;103236.47;;;30.07;21.97
17438;BME280;73152;52.198;5.422;2024-01-11T04:40:15;103245.53;;;30.36;22.02
17438;BME280;73152;52.198;5.422;2024-01-11T04:42:44;103228.41;;;30.61;21.40
17438;BME280;73152;52.198;5.422;2024-01-11T04:45:13;103230.78;;;30.84;21.32
17438;BME280;73152;52.198;5.422;2024-01-11T04:47:42;103244.34;;;30.92;20.89
17438;BME280;73152;52.198;5.422;2024-01-11T04:50:11;103240.34;;;30.95;21.14
17438;BME280;73152;52.198;5.422;2024-01-11T04:52:40;103240.75;;;30.98;20.92
17438;BME280;73152;52.198;5.422;2024-01-11T04:55:09;103252.28;;;30.87;20.94
17438;BME280;73152;52.198;5.422;2024-01-11T04:57:41;103243.22;;;30.80;21.15
17438;BME280;73152;52.198;5.422;2024-01-11T05:00:11;103234.72;;;30.62;21.24
17438;BME280;73152;52.198;5.422;2024-01-11T05:02:40;103234.59;;;30.36;21.35
17438;BME280;73152;52.198;5.422;2024-01-11T05:05:09;103225.69;;;29.99;21.99
17438;BME280;73152;52.198;5.422;2024-01-11T05:07:38;103228.78;;;29.62;22.15
17438;BME280;73152;52.198;5.422;2024-01-11T05:10:08;103234.91;;;29.22;22.81
17438;BME280;73152;52.198;5.422;2024-01-11T05:12:40;103225.13;;;28.77;23.39
17438;BME280;73152;52.198;5.422;2024-01-11T05:15:10;103234.06;;;28.42;23.68
17438;BME280;73152;52.198;5.422;2024-01-11T05:17:38;103232.13;;;28.06;23.93
17438;BME280;73152;52.198;5.422;2024-01-11T05:20:09;103224.41;;;27.73;24.63
17438;BME280;73152;52.198;5.422;2024-01-11T05:22:38;103216.34;;;27.42;24.63
17438;BME280;73152;52.198;5.422;2024-01-11T05:25:08;103206.50;;;27.10;25.20
17438;BME280;73152;52.198;5.422;2024-01-11T05:27:37;103204.31;;;26.83;25.56
17438;BME280;73152;52.198;5.422;2024-01-11T05:30:10;103202.03;;;26.56;25.79
17438;BME280;73152;52.198;5.422;2024-01-11T05:32:39;103199.44;;;26.32;26.14
17438;BME280;73152;52.198;5.422;2024-01-11T05:35:08;103204.41;;;26.12;26.13
17438;BME280;73152;52.198;5.422;2024-01-11T05:37:37;103203.56;;;25.95;26.40
17438;BME280;73152;52.198;5.422;2024-01-11T05:40:09;103215.97;;;25.98;26.76
17438;BME280;73152;52.198;5.422;2024-01-11T05:42:39;103204.56;;;26.18;26.12
17438;BME280;73152;52.198;5.422;2024-01-11T05:45:11;103192.13;;;26.63;25.60
17438;BME280;73152;52.198;5.422;2024-01-11T05:47:42;103203.31;;;27.29;25.26
17438;BME280;73152;52.198;5.422;2024-01-11T05:50:12;103208.88;;;28.10;23.98
17438;BME280;73152;52.198;5.422;2024-01-11T05:52:40;103218.56;;;28.92;23.41
17438;BME280;73152;52.198;5.422;2024-01-11T05:55:09;103228.34;;;29.65;22.17
17438;BME280;73152;52.198;5.422;2024-01-11T05:57:38;103229.22;;;29.93;22.10
17438;BME280;73152;52.198;5.422;2024-01-11T06:00:11;103229.63;;;29.69;22.31
17438;BME280;73152;52.198;5.422;2024-01-11T06:02:40;103228.19;;;29.24;22.65
17438;BME280;73152;52.198;5.422;2024-01-11T06:05:09;103230.19;;;28.80;23.23
17438;BME280;73152;52.198;5.422;2024-01-11T06:07:38;103246.78;;;28.35;23.71
17438;BME280;73152;52.198;5.422;2024-01-11T06:10:08;103247.38;;;27.93;23.87
17438;BME280;73152;52.198;5.422;2024-01-11T06:12:40;103267.13;;;27.58;24.46
17438;BME280;73152;52.198;5.422;2024-01-11T06:15:11;103277.78;;;27.14;25.14
17438;BME280;73152;52.198;5.422;2024-01-11T06:17:41;103286.56;;;26.93;25.38
17438;BME280;73152;52.198;5.422;2024-01-11T06:20:11;103286.66;;;26.77;25.67
17438;BME280;73152;52.198;5.422;2024-01-11T06:22:40;103293.13;;;26.76;25.30
17438;BME280;73152;52.198;5.422;2024-01-11T06:25:09;103288.56;;;27.30;25.07
17438;BME280;73152;52.198;5.422;2024-01-11T06:27:37;103288.06;;;28.17;23.82
17438;BME280;73152;52.198;5.422;2024-01-11T06:30:11;103299.16;;;29.18;23.10
17438;BME280;73152;52.198;5.422;2024-01-11T06:32:40;103305.91;;;30.06;21.98
17438;BME280;73152;52.198;5.422;2024-01-11T06:35:09;103320.28;;;30.77;21.39
17438;BME280;73152;52.198;5.422;2024-01-11T06:37:38;103320.53;;;31.29;20.48
17438;BME280;73152;52.198;5.422;2024-01-11T06:40:07;103320.63;;;31.69;20.54
17438;BME280;73152;52.198;5.422;2024-01-11T06:42:36;103321.06;;;32.18;19.66
17438;BME280;73152;52.198;5.422;2024-01-11T06:45:07;103321.69;;;32.27;19.62
17438;BME280;73152;52.198;5.422;2024-01-11T06:47:39;103318.94;;;32.33;19.64
17438;BME280;73152;52.198;5.422;2024-01-11T06:50:08;103319.13;;;32.25;19.62
17438;BME280;73152;52.198;5.422;2024-01-11T06:52:38;103325.53;;;32.06;19.91
17438;BME280;73152;52.198;5.422;2024-01-11T06:55:08;103326.53;;;31.79;20.13
17438;BME280;73152;52.198;5.422;2024-01-11T06:57:37;103324.41;;;31.61;20.19
17438;BME280;73152;52.198;5.422;2024-01-11T07:00:08;103323.91;;;31.31;20.81
17438;BME280;73152;52.198;5.422;2024-01-11T07:02:39;103318.09;;;31.00;20.65
17438;BME280;73152;52.198;5.422;2024-01-11T07:05:08;103318.72;;;30.61;21.09
17438;BME280;73152;52.198;5.422;2024-01-11T07:07:38;103312.78;;;30.23;21.30
17438;BME280;73152;52.198;5.422;2024-01-11T07:10:08;103312.47;;;29.84;21.91
17438;BME280;73152;52.198;5.422;2024-01-11T07:12:38;103303.97;;;29.37;22.35
17438;BME280;73152;52.198;5.422;2024-01-11T07:15:10;103301.41;;;29.00;22.58
17438;BME280;73152;52.198;5.422;2024-01-11T07:17:41;103300.91;;;28.60;23.28
17438;BME280;73152;52.198;5.422;2024-01-11T07:20:11;103289.38;;;28.21;23.72
17438;BME280;73152;52.198;5.422;2024-01-11T07:22:42;103286.09;;;27.88;24.14
17438;BME280;73152;52.198;5.422;2024-01-11T07:25:11;103290.28;;;27.53;24.53
17438;BME280;73152;52.198;5.422;2024-01-11T07:27:40;103279.25;;;27.24;24.63
17438;BME280;73152;52.198;5.422;2024-01-11T07:30:13;103282.84;;;26.94;25.24
17438;BME280;73152;52.198;5.422;2024-01-11T07:32:44;103282.22;;;26.68;25.46
17438;BME280;73152;52.198;5.422;2024-01-11T07:35:14;103292.00;;;26.46;25.53
17438;BME280;73152;52.198;5.422;2024-01-11T07:37:43;103302.56;;;26.41;25.83
17438;BME280;73152;52.198;5.422;2024-01-11T07:40:12;103310.47;;;26.67;25.40
17438;BME280;73152;52.198;5.422;2024-01-11T07:42:42;103305.50;;;27.17;25.01
17438;BME280;73152;52.198;5.422;2024-01-11T07:45:11;103303.44;;;27.73;24.58
17438;BME280;73152;52.198;5.422;2024-01-11T07:47:41;103289.66;;;27.89;24.36
17438;BME280;73152;52.198;5.422;2024-01-11T07:50:12;103295.94;;;28.12;23.79
17438;BME280;73152;52.198;5.422;2024-01-11T07:52:41;103301.88;;;28.30;23.73
17438;BME280;73152;52.198;5.422;2024-01-11T07:55:11;103308.22;;;28.74;23.07
17438;BME280;73152;52.198;5.422;2024-01-11T07:57:40;103305.84;;;29.57;22.33
17438;BME280;73152;52.198;5.422;2024-01-11T08:00:10;103308.91;;;30.73;21.14
17438;BME280;73152;52.198;5.422;2024-01-11T08:02:39;103307.09;;;31.74;20.29
17438;BME280;73152;52.198;5.422;2024-01-11T08:05:09;103296.72;;;32.41;19.47
17438;BME280;73152;52.198;5.422;2024-01-11T08:07:40;103289.25;;;32.74;19.21
17438;BME280;73152;52.198;5.422;2024-01-11T08:10:10;103302.25;;;32.99;18.96
17438;BME280;73152;52.198;5.422;2024-01-11T08:12:39;103305.88;;;32.92;19.27
17438;BME280;73152;52.198;5.422;2024-01-11T08:15:09;103300.69;;;32.71;19.15
17438;BME280;73152;52.198;5.422;2024-01-11T08:17:38;103291.00;;;32.62;19.24
17438;BME280;73152;52.198;5.422;2024-01-11T08:20:10;103292.13;;;32.29;19.60
17438;BME280;73152;52.198;5.422;2024-01-11T08:22:42;103306.72;;;31.90;19.57
17438;BME280;73152;52.198;5.422;2024-01-11T08:25:12;103315.56;;;31.52;19.90
17438;BME280;73152;52.198;5.422;2024-01-11T08:27:41;103315.34;;;31.00;20.86
17438;BME280;73152;52.198;5.422;2024-01-11T08:30:11;103303.53;;;30.52;21.40
17438;BME280;73152;52.198;5.422;2024-01-11T08:32:40;103306.50;;;30.02;21.62
17438;BME280;73152;52.198;5.422;2024-01-11T08:35:09;103318.22;;;29.53;21.81
17438;BME280;73152;52.198;5.422;2024-01-11T08:37:41;103322.78;;;29.11;22.71
17438;BME280;73152;52.198;5.422;2024-01-11T08:40:11;103329.78;;;28.69;22.79
17438;BME280;73152;52.198;5.422;2024-01-11T08:42:40;103330.69;;;28.33;23.35
17438;BME280;73152;52.198;5.422;2024-01-11T08:45:10;103335.75;;;27.98;23.59
17438;BME280;73152;52.198;5.422;2024-01-11T08:47:44;103345.06;;;27.67;24.20
17438;BME280;73152;52.198;5.422;2024-01-11T08:50:13;103348.63;;;27.36;24.41
17438;BME280;73152;52.198;5.422;2024-01-11T08:52:46;103353.72;;;27.09;24.61
17438;BME280;73152;52.198;5.422;2024-01-11T08:55:15;103367.59;;;26.83;25.31
17438;BME280;73152;52.198;5.422;2024-01-11T08:57:44;103372.06;;;26.60;25.29
17438;BME280;73152;52.198;5.422;2024-01-11T09:00:13;103372.75;;;26.38;25.76
17438;BME280;73152;52.198;5.422;2024-01-11T09:02:43;103376.53;;;26.21;25.64
17438;BME280;73152;52.198;5.422;2024-01-11T09:05:14;103369.03;;;26.31;25.80
17438;BME280;73152;52.198;5.422;2024-01-11T09:07:46;103384.75;;;26.83;25.32
17438;BME280;73152;52.198;5.422;2024-01-11T09:10:15;103379.19;;;27.77;23.94
17438;BME280;73152;52.198;5.422;2024-01-11T09:12:44;103376.75;;;28.79;22.99
17438;BME280;73152;52.198;5.422;2024-01-11T09:15:13;103372.56;;;29.63;22.26
17438;BME280;73152;52.198;5.422;2024-01-11T09:17:42;103374.66;;;30.24;21.65
17438;BME280;73152;52.198;5.422;2024-01-11T09:20:11;103369.47;;;30.57;21.10
17438;BME280;73152;52.198;5.422;2024-01-11T09:22:40;103375.19;;;30.35;21.35
17438;BME280;73152;52.198;5.422;2024-01-11T09:25:12;103383.88;;;30.17;21.41
17438;BME280;73152;52.198;5.422;2024-01-11T09:27:41;103381.91;;;30.11;21.49
17438;BME280;73152;52.198;5.422;2024-01-11T09:30:11;103390.25;;;30.03;21.60
17438;BME280;73152;52.198;5.422;2024-01-11T09:32:40;103385.34;;;30.41;21.44
17438;BME280;73152;52.198;5.422;2024-01-11T09:35:09;103394.31;;;30.90;20.79
17438;BME280;73152;52.198;5.422;2024-01-11T09:37:38;103387.94;;;31.17;20.25
17438;BME280;73152;52.198;5.422;2024-01-11T09:40:11;103386.84;;;31.12;20.32
17438;BME280;73152;52.198;5.422;2024-01-11T09:42:41;103397.53;;;31.00;20.56
17438;BME280;73152;52.198;5.422;2024-01-11T09:45:15;103395.75;;;30.86;20.61
17438;BME280;73152;52.198;5.422;2024-01-11T09:47:45;103396.63;;;30.59;21.11
17438;BME280;73152;52.198;5.422;2024-01-11T09:50:17;103390.56;;;30.36;21.27
17438;BME280;73152;52.198;5.422;2024-01-11T09:52:49;103395.56;;;30.11;21.49
17438;BME280;73152;52.198;5.422;2024-01-11T09:55:20;103390.16;;;29.75;21.91
17438;BME280;73152;52.198;5.422;2024-01-11T09:57:54;103380.47;;;29.37;22.33
17438;BME280;73152;52.198;5.422;2024-01-11T10:00:26;103390.88;;;28.98;22.81
17438;BME280;73152;52.198;5.422;2024-01-11T10:02:56;103402.91;;;28.59;23.05
17438;BME280;73152;52.198;5.422;2024-01-11T10:05:27;103400.19;;;28.22;23.24
17438;BME280;73152;52.198;5.422;2024-01-11T10:07:56;103396.16;;;27.87;24.02
17438;BME280;73152;52.198;5.422;2024-01-11T10:10:27;103404.38;;;27.57;24.38
17438;BME280;73152;52.198;5.422;2024-01-11T10:12:57;103393.75;;;27.31;24.47
17438;BME280;73152;52.198;5.422;2024-01-11T10:18:54;103400.41;;;26.90;24.83
17438;BME280;73152;52.198;5.422;2024-01-11T10:21:24;103395.16;;;26.80;25.13
17438;BME280;73152;52.198;5.422;2024-01-11T10:23:53;103383.75;;;26.76;25.14
17438;BME280;73152;52.198;5.422;2024-01-11T10:26:25;103395.50;;;26.69;25.24
17438;BME280;73152;52.198;5.422;2024-01-11T10:28:58;103402.13;;;26.58;25.60
17438;BME280;73152;52.198;5.422;2024-01-11T10:31:29;103402.31;;;26.49;25.32
17438;BME280;73152;52.198;5.422;2024-01-11T10:33:57;103406.22;;;26.54;25.49
17438;BME280;73152;52.198;5.422;2024-01-11T10:36:31;103402.53;;;27.10;24.66
17438;BME280;73152;52.198;5.422;2024-01-11T10:39:02;103401.28;;;28.13;23.74
17438;BME280;73152;52.198;5.422;2024-01-11T10:41:40;103407.44;;;29.40;22.38
17438;BME280;73152;52.198;5.422;2024-01-11T10:44:18;103411.91;;;30.25;21.62
17438;BME280;73152;52.198;5.422;2024-01-11T10:46:49;103415.09;;;30.78;20.89
17438;BME280;73152;52.198;5.422;2024-01-11T10:49:19;103421.84;;;31.16;20.83
17438;BME280;73152;52.198;5.422;2024-01-11T10:51:59;103419.81;;;31.31;20.12
17438;BME280;73152;52.198;5.422;2024-01-11T10:54:29;103416.16;;;31.58;20.03
17438;BME280;73152;52.198;5.422;2024-01-11T10:57:02;103421.34;;;31.40;19.96
17438;BME280;73152;52.198;5.422;2024-01-11T10:59:37;103423.72;;;31.09;20.55
17438;BME280;73152;52.198;5.422;2024-01-11T11:02:06;103423.06;;;30.73;21.00
17438;BME280;73152;52.198;5.422;2024-01-11T11:04:38;103424.75;;;30.46;21.08
17438;BME280;73152;52.198;5.422;2024-01-11T11:07:09;103435.31;;;30.28;21.44
17438;BME280;73152;52.198;5.422;2024-01-11T11:09:42;103430.00;;;30.20;21.18
17438;BME280;73152;52.198;5.422;2024-01-11T11:12:16;103436.06;;;30.15;21.57
17438;BME280;73152;52.198;5.422;2024-01-11T11:14:47;103436.75;;;30.03;21.26
17438;BME280;73152;52.198;5.422;2024-01-11T11:17:17;103430.69;;;29.86;21.61
17438;BME280;73152;52.198;5.422;2024-01-11T11:19:46;103432.34;;;29.66;21.99
17438;BME280;73152;52.198;5.422;2024-01-11T11:22:16;103420.88;;;29.41;22.10
17438;BME280;73152;52.198;5.422;2024-01-11T11:24:46;103421.34;;;29.16;22.34
17438;BME280;73152;52.198;5.422;2024-01-11T11:27:18;103424.75;;;28.88;22.45
17438;BME280;73152;52.198;5.422;2024-01-11T11:29:47;103414.16;;;28.56;23.00
17438;BME280;73152;52.198;5.422;2024-01-11T11:32:17;103414.13;;;28.27;23.16
17438;BME280;73152;52.198;5.422;2024-01-11T11:35:04;103410.94;;;27.93;23.88
17438;BME280;73152;52.198;5.422;2024-01-11T11:37:36;103400.91;;;27.63;23.98
17438;BME280;73152;52.198;5.422;2024-01-11T11:40:08;103401.41;;;27.35;24.39
17438;BME280;73152;52.198;5.422;2024-01-11T11:42:41;103388.59;;;27.05;24.69
17438;BME280;73152;52.198;5.422;2024-01-11T11:45:11;103392.91;;;26.83;24.94
17438;BME280;73152;52.198;5.422;2024-01-11T11:47:40;103383.09;;;26.66;25.01
17438;BME280;73152;52.198;5.422;2024-01-11T11:50:12;103377.50;;;26.60;25.34
17438;BME280;73152;52.198;5.422;2024-01-11T11:52:41;103372.72;;;26.62;25.32
17438;BME280;73152;52.198;5.422;2024-01-11T11:55:11;103381.88;;;26.77;25.39
17438;BME280;73152;52.198;5.422;2024-01-11T11:57:46;103377.72;;;27.05;24.77
17438;BME280;73152;52.198;5.422;2024-01-11T12:00:17;103370.56;;;27.43;24.47
17438;BME280;73152;52.198;5.422;2024-01-11T12:02:47;103364.31;;;27.88;23.68
17438;BME280;73152;52.198;5.422;2024-01-11T12:05:18;103343.97;;;28.36;23.36
17438;BME280;73152;52.198;5.422;2024-01-11T12:07:47;103347.09;;;28.76;22.67
17438;BME280;73152;52.198;5.422;2024-01-11T12:10:17;103343.84;;;29.17;22.22
17438;BME280;73152;52.198;5.422;2024-01-11T12:12:48;103340.31;;;29.52;22.05
17438;BME280;73152;52.198;5.422;2024-01-11T12:15:18;103326.09;;;29.63;21.83
17438;BME280;73152;52.198;5.422;2024-01-11T12:17:47;103327.25;;;29.90;21.78
17438;BME280;73152;52.198;5.422;2024-01-11T12:20:16;103328.59;;;30.00;21.39
17438;BME280;73152;52.198;5.422;2024-01-11T12:22:47;103328.50;;;30.15;21.42
17438;BME280;73152;52.198;5.422;2024-01-11T12:25:16;103330.00;;;30.17;21.59
17438;BME280;73152;52.198;5.422;2024-01-11T12:27:48;103323.66;;;30.17;21.41
17438;BME280;73152;52.198;5.422;2024-01-11T12:30:17;103329.75;;;30.12;21.38
17438;BME280;73152;52.198;5.422;2024-01-11T12:32:46;103332.47;;;30.12;21.42
17438;BME280;73152;52.198;5.422;2024-01-11T12:35:16;103320.97;;;29.96;21.63
17438;BME280;73152;52.198;5.422;2024-01-11T12:37:53;103323.78;;;29.81;22.01
17438;BME280;73152;52.198;5.422;2024-01-11T12:40:22;103320.63;;;29.63;21.76
17438;BME280;73152;52.198;5.422;2024-01-11T12:42:57;103319.97;;;29.40;22.08
17438;BME280;73152;52.198;5.422;2024-01-11T12:45:26;103318.94;;;29.20;22.58
17438;BME280;73152;52.198;5.422;2024-01-11T12:47:55;103310.16;;;28.95;22.68
17438;BME280;73152;52.198;5.422;2024-01-11T12:50:26;103303.16;;;28.71;22.65
17438;BME280;73152;52.198;5.422;2024-01-11T12:53:09;103295.59;;;28.44;23.28
17438;BME280;73152;52.198;5.422;2024-01-11T12:55:43;103288.72;;;28.19;23.39
17438;BME280;73152;52.198;5.422;2024-01-11T12:58:20;103278.22;;;27.93;23.91
17438;BME280;73152;52.198;5.422;2024-01-11T13:00:50;103278.56;;;27.76;23.96
17438;BME280;73152;52.198;5.422;2024-01-11T13:03:19;103289.94;;;27.57;24.43
17438;BME280;73152;52.198;5.422;2024-01-11T13:05:49;103282.25;;;27.37;24.57
17438;BME280;73152;52.198;5.422;2024-01-11T13:08:19;103286.75;;;27.22;24.43